createdAt,value
2017-04-17T00:00:32.252Z,99.99
2017-04-17T00:01:32.641Z,99.99
2017-04-17T00:02:33.010Z,99.99
2017-04-17T00:03:33.399Z,99.99
2017-04-17T00:04:33.794Z,99.99
2017-04-17T00:05:34.193Z,99.99
2017-04-17T00:06:34.586Z,99.99
2017-04-17T00:07:34.970Z,99.99
2017-04-17T00:08:35.369Z,99.99
2017-04-17T00:09:35.772Z,99.99
2017-04-17T00:10:36.171Z,99.99
2017-04-17T00:11:36.565Z,99.99
2017-04-17T00:12:36.958Z,99.99
2017-04-17T00:13:37.360Z,99.99
2017-04-17T00:14:37.764Z,99.99
2017-04-17T00:15:38.150Z,99.99
2017-04-17T00:16:38.597Z,99.99
2017-04-17T00:17:38.995Z,99.99
2017-04-17T00:18:38.991Z,99.99
2017-04-17T00:19:39.517Z,99.99
2017-04-17T00:20:39.921Z,99.99
2017-04-17T00:21:40.318Z,99.99
2017-04-17T00:22:40.713Z,99.99
2017-04-17T00:23:41.111Z,99.99
2017-04-17T00:24:41.512Z,99.99
2017-04-17T00:25:41.910Z,99.99
2017-04-17T00:26:42.317Z,99.99
2017-04-17T00:27:42.319Z,99.99
2017-04-17T00:28:42.724Z,99.99
2017-04-17T00:29:43.121Z,99.99
2017-04-17T00:30:43.516Z,99.99
2017-04-17T00:31:43.914Z,99.99
2017-04-17T00:32:44.316Z,99.99
2017-04-17T00:33:44.713Z,99.99
2017-04-17T00:34:45.116Z,99.99
2017-04-17T00:35:45.508Z,99.99
2017-04-17T00:36:45.891Z,99.99
2017-04-17T00:37:46.293Z,99.99
2017-04-17T00:38:46.674Z,99.99
2017-04-17T00:39:47.063Z,99.99
2017-04-17T00:40:47.450Z,99.99
2017-04-17T00:41:47.842Z,99.99
2017-04-17T00:42:48.216Z,99.99
2017-04-17T00:43:48.611Z,99.99
2017-04-17T00:44:49.199Z,99.99
2017-04-17T00:45:49.590Z,99.99
2017-04-17T00:46:49.992Z,99.99
2017-04-17T00:47:50.425Z,99.99
2017-04-17T00:48:50.828Z,99.99
2017-04-17T00:49:51.215Z,99.99
2017-04-17T00:50:51.591Z,99.99
2017-04-17T00:51:51.987Z,99.99
2017-04-17T00:52:52.396Z,99.99
2017-04-17T00:53:52.837Z,99.99
2017-04-17T00:54:53.241Z,99.99
2017-04-17T00:55:53.251Z,99.99
2017-04-17T00:56:53.707Z,99.99
2017-04-17T00:57:54.095Z,99.99
2017-04-17T00:58:54.497Z,99.99
2017-04-17T00:59:54.894Z,99.99
2017-04-17T01:00:55.496Z,99.99
2017-04-17T01:01:55.504Z,99.99
2017-04-17T01:02:55.895Z,99.99
2017-04-17T01:03:56.286Z,99.99
2017-04-17T01:04:56.309Z,99.99
2017-04-17T01:05:56.718Z,99.99
2017-04-17T01:06:57.130Z,99.99
2017-04-17T01:07:57.513Z,99.99
2017-04-17T01:08:57.920Z,99.99
2017-04-17T01:09:58.316Z,99.99
2017-04-17T01:10:58.710Z,99.99
2017-04-17T01:11:59.085Z,99.99
2017-04-17T01:12:59.473Z,99.99
2017-04-17T01:13:59.882Z,99.99
2017-04-17T01:14:59.888Z,99.99
2017-04-17T01:16:00.290Z,99.99
2017-04-17T01:17:00.692Z,99.99
2017-04-17T01:18:01.096Z,99.99
2017-04-17T01:19:01.492Z,99.99
2017-04-17T01:20:01.893Z,99.99
2017-04-17T01:21:02.298Z,99.99
2017-04-17T01:22:02.701Z,99.99
2017-04-17T01:23:03.100Z,99.99
2017-04-17T01:24:03.505Z,99.99
2017-04-17T01:25:04.065Z,99.99
2017-04-17T01:26:03.908Z,99.99
2017-04-17T01:27:04.304Z,99.99
2017-04-17T01:28:04.705Z,99.99
2017-04-17T01:29:05.102Z,99.99
2017-04-17T01:30:05.850Z,99.99
2017-04-17T01:31:05.507Z,99.99
2017-04-17T01:32:05.894Z,99.99
2017-04-17T01:33:05.903Z,99.99
2017-04-17T01:34:06.300Z,99.99
2017-04-17T01:35:06.915Z,99.99
2017-04-17T01:36:07.302Z,99.99
2017-04-17T01:37:07.667Z,99.99
2017-04-17T01:38:08.081Z,99.99
2017-04-17T01:39:08.478Z,99.99
2017-04-17T01:40:08.875Z,99.99
2017-04-17T01:41:09.263Z,99.99
2017-04-17T01:42:09.652Z,99.99
2017-04-17T01:43:09.667Z,99.99
2017-04-17T01:44:10.066Z,99.99
2017-04-17T01:45:10.468Z,99.99
2017-04-17T01:46:10.872Z,99.99
2017-04-17T01:47:11.272Z,99.99
2017-04-17T01:48:11.672Z,99.99
2017-04-17T01:49:12.049Z,99.99
2017-04-17T01:50:12.439Z,99.99
2017-04-17T01:51:12.827Z,99.99
2017-04-17T01:52:13.300Z,99.99
2017-04-17T01:53:13.729Z,99.99
2017-04-17T01:54:14.101Z,99.99
2017-04-17T01:55:14.598Z,99.99
2017-04-17T01:56:14.975Z,99.99
2017-04-17T01:57:15.376Z,99.99
2017-04-17T01:58:15.773Z,99.99
2017-04-17T01:59:16.175Z,99.99
2017-04-17T02:00:16.729Z,99.99
2017-04-17T02:01:17.121Z,99.99
2017-04-17T02:02:17.554Z,99.99
2017-04-17T02:03:17.992Z,99.99
2017-04-17T02:04:18.427Z,99.99
2017-04-17T02:05:18.827Z,99.99
2017-04-17T02:06:19.223Z,99.99
2017-04-17T02:07:19.615Z,99.99
2017-04-17T02:08:20.009Z,99.99
2017-04-17T02:09:20.408Z,99.99
2017-04-17T02:10:20.998Z,99.99
2017-04-17T02:11:21.398Z,99.99
2017-04-17T02:12:21.805Z,99.99
2017-04-17T02:13:22.210Z,99.99
2017-04-17T02:14:22.604Z,99.99
2017-04-17T02:15:23.001Z,99.99
2017-04-17T02:16:23.403Z,99.99
2017-04-17T02:17:23.801Z,99.99
2017-04-17T02:18:24.202Z,99.99
2017-04-17T02:19:24.618Z,99.99
2017-04-17T02:20:38.500Z,99.99
2017-04-17T02:21:38.886Z,99.99
2017-04-17T02:22:39.271Z,99.99
2017-04-17T02:23:39.678Z,99.99
2017-04-17T02:24:40.078Z,99.99
2017-04-17T02:25:40.477Z,99.99
2017-04-17T02:26:40.871Z,99.99
2017-04-17T02:27:41.252Z,99.99
2017-04-17T02:28:41.719Z,99.99
2017-04-17T02:29:42.124Z,99.99
2017-04-17T02:30:42.526Z,99.99
2017-04-17T02:31:42.916Z,99.99
2017-04-17T02:32:43.320Z,99.99
2017-04-17T02:33:43.718Z,99.99
2017-04-17T02:34:44.125Z,99.99
2017-04-17T02:35:44.554Z,99.99
2017-04-17T02:36:44.975Z,99.99
2017-04-17T02:37:45.344Z,99.99
2017-04-17T02:38:45.720Z,99.99
2017-04-17T02:39:46.122Z,99.99
2017-04-17T02:40:46.524Z,99.99
2017-04-17T02:41:46.530Z,99.99
2017-04-17T02:42:46.554Z,99.99
2017-04-17T02:43:46.950Z,99.99
2017-04-17T02:44:47.345Z,99.99
2017-04-17T02:45:47.762Z,99.99
2017-04-17T02:46:48.155Z,99.99
2017-04-17T02:47:48.548Z,99.99
2017-04-17T02:48:48.940Z,99.99
2017-04-17T02:49:49.333Z,99.99
2017-04-17T02:50:49.735Z,99.99
2017-04-17T02:51:49.746Z,99.99
2017-04-17T02:52:50.126Z,99.99
2017-04-17T02:53:50.529Z,99.99
2017-04-17T02:54:50.930Z,99.99
2017-04-17T02:55:51.337Z,99.99
2017-04-17T02:56:51.727Z,99.99
2017-04-17T02:57:52.124Z,99.99
2017-04-17T02:58:52.515Z,99.99
2017-04-17T02:59:52.917Z,99.99
2017-04-17T03:00:53.335Z,99.99
2017-04-17T03:01:53.744Z,99.99
2017-04-17T03:02:54.142Z,99.99
2017-04-17T03:03:54.509Z,99.99
2017-04-17T03:04:54.923Z,99.99
2017-04-17T03:05:55.320Z,99.99
2017-04-17T03:06:55.702Z,99.99
2017-04-17T03:07:56.091Z,99.99
2017-04-17T03:08:56.481Z,99.99
2017-04-17T03:09:56.871Z,99.99
2017-04-17T03:10:57.279Z,99.99
2017-04-17T03:11:57.672Z,99.99
2017-04-17T03:12:58.077Z,99.99
2017-04-17T03:13:58.470Z,99.99
2017-04-17T03:14:58.886Z,99.99
2017-04-17T03:15:59.319Z,99.99
2017-04-17T03:16:59.718Z,99.99
2017-04-17T03:18:00.103Z,99.99
2017-04-17T03:19:00.506Z,99.99
2017-04-17T03:20:00.526Z,99.99
2017-04-17T03:21:00.908Z,99.99
2017-04-17T03:22:01.306Z,99.99
2017-04-17T03:23:01.704Z,99.99
2017-04-17T03:24:02.093Z,99.99
2017-04-17T03:25:02.489Z,99.99
2017-04-17T03:26:02.891Z,99.99
2017-04-17T03:27:03.296Z,99.99
2017-04-17T03:28:03.752Z,99.99
2017-04-17T03:29:04.149Z,99.99
2017-04-17T03:30:04.552Z,99.99
2017-04-17T03:31:04.930Z,99.99
2017-04-17T03:32:05.308Z,99.99
2017-04-17T03:33:05.710Z,99.99
2017-04-17T03:34:06.110Z,99.99
2017-04-17T03:35:06.516Z,99.99
2017-04-17T03:36:06.907Z,99.99
2017-04-17T03:37:07.306Z,99.99
2017-04-17T03:38:07.711Z,99.99
2017-04-17T03:39:08.139Z,99.99
2017-04-17T03:40:08.559Z,99.99
2017-04-17T03:41:08.957Z,99.99
2017-04-17T03:42:09.356Z,99.99
2017-04-17T03:43:09.748Z,99.99
2017-04-17T03:44:10.157Z,99.99
2017-04-17T03:45:10.564Z,99.99
2017-04-17T03:46:10.959Z,99.99
2017-04-17T03:47:11.352Z,99.99
2017-04-17T03:48:11.766Z,99.99
2017-04-17T03:49:12.167Z,99.99
2017-04-17T03:50:12.551Z,99.99
2017-04-17T03:51:12.930Z,99.99
2017-04-17T03:52:13.334Z,99.99
2017-04-17T03:53:13.722Z,99.99
2017-04-17T03:54:14.113Z,99.99
2017-04-17T03:55:14.479Z,99.99
2017-04-17T03:56:14.903Z,99.99
2017-04-17T03:57:15.292Z,99.99
2017-04-17T03:58:15.732Z,99.99
2017-04-17T03:59:16.137Z,99.99
2017-04-17T04:00:16.568Z,99.99
2017-04-17T04:01:16.589Z,99.99
2017-04-17T04:02:17.038Z,99.99
2017-04-17T04:03:17.477Z,99.99
2017-04-17T04:04:17.939Z,99.99
2017-04-17T04:05:18.400Z,99.99
2017-04-17T04:06:18.871Z,99.99
2017-04-17T04:07:19.343Z,99.99
2017-04-17T04:08:19.808Z,99.99
2017-04-17T04:09:20.250Z,99.99
2017-04-17T04:10:20.702Z,99.99
2017-04-17T04:11:21.140Z,99.99
2017-04-17T04:12:21.598Z,99.99
2017-04-17T04:13:22.050Z,99.99
2017-04-17T04:14:22.499Z,99.99
2017-04-17T04:15:23.050Z,99.99
2017-04-17T04:16:23.050Z,99.99
2017-04-17T04:17:23.543Z,99.99
2017-04-17T04:18:24.008Z,99.99
2017-04-17T04:19:24.446Z,99.99
2017-04-17T04:20:24.894Z,99.99
2017-04-17T04:21:25.348Z,99.99
2017-04-17T04:22:25.822Z,99.99
2017-04-17T04:23:26.267Z,99.99
2017-04-17T04:24:26.828Z,99.99
2017-04-17T04:25:27.303Z,99.99
2017-04-17T04:26:27.750Z,99.99
2017-04-17T04:27:28.214Z,99.99
2017-04-17T04:28:28.654Z,99.99
2017-04-17T04:29:29.131Z,99.99
2017-04-17T04:30:29.594Z,99.99
2017-04-17T04:31:30.047Z,99.99
2017-04-17T04:32:30.507Z,99.99
2017-04-17T04:33:30.992Z,99.99
2017-04-17T04:34:31.478Z,99.99
2017-04-17T04:35:31.944Z,99.99
2017-04-17T04:36:32.393Z,99.99
2017-04-17T04:37:32.867Z,99.99
2017-04-17T04:38:33.337Z,99.99
2017-04-17T04:39:33.823Z,99.99
2017-04-17T04:40:34.295Z,99.99
2017-04-17T04:41:34.753Z,99.99
2017-04-17T04:42:35.207Z,99.99
2017-04-17T04:43:35.655Z,99.99
2017-04-17T04:44:36.136Z,99.99
2017-04-17T04:45:36.580Z,99.99
2017-04-17T04:46:37.638Z,99.99
2017-04-17T04:47:37.572Z,99.99
2017-04-17T04:48:37.580Z,99.99
2017-04-17T04:49:37.631Z,99.99
2017-04-17T04:50:37.657Z,99.99
2017-04-17T04:51:37.683Z,99.99
2017-04-17T04:52:37.717Z,99.99
2017-04-17T04:53:37.737Z,99.99
2017-04-17T04:54:37.745Z,99.99
2017-04-17T04:55:37.768Z,99.99
2017-04-17T04:56:37.815Z,99.99
2017-04-17T04:57:37.854Z,99.99
2017-04-17T04:58:37.869Z,99.99
2017-04-17T04:59:37.855Z,99.99
2017-04-17T05:00:37.967Z,99.99
2017-04-17T05:01:37.950Z,99.99
2017-04-17T05:02:37.979Z,99.99
2017-04-17T05:03:37.989Z,99.99
2017-04-17T05:04:38.024Z,99.99
2017-04-17T05:05:38.053Z,99.99
2017-04-17T05:06:38.083Z,99.99
2017-04-17T05:07:38.103Z,99.99
2017-04-17T05:08:38.135Z,99.99
2017-04-17T05:09:38.148Z,99.99
2017-04-17T05:10:38.166Z,99.99
2017-04-17T05:11:38.220Z,99.99
2017-04-17T05:12:38.236Z,99.99
2017-04-17T05:13:38.271Z,99.99
2017-04-17T05:14:38.277Z,99.99
2017-04-17T05:15:38.325Z,99.99
2017-04-17T05:16:38.348Z,99.99
2017-04-17T05:17:38.375Z,99.99
2017-04-17T05:18:38.404Z,99.99
2017-04-17T05:19:38.427Z,99.99
2017-04-17T05:20:38.459Z,99.99
2017-04-17T05:21:38.470Z,99.99
2017-04-17T05:22:38.529Z,99.99
2017-04-17T05:23:38.535Z,99.99
2017-04-17T05:24:38.581Z,99.99
2017-04-17T05:25:38.578Z,99.99
2017-04-17T05:26:38.618Z,99.99
2017-04-17T05:27:38.653Z,99.99
2017-04-17T05:28:38.679Z,99.99
2017-04-17T05:29:38.703Z,99.99
2017-04-17T05:30:38.718Z,99.99
2017-04-17T05:31:38.750Z,99.99
2017-04-17T05:32:38.787Z,99.99
2017-04-17T05:33:38.811Z,99.99
2017-04-17T05:34:38.821Z,99.99
2017-04-17T05:35:38.871Z,99.99
2017-04-17T05:36:38.885Z,99.99
2017-04-17T05:37:38.925Z,99.99
2017-04-17T05:38:38.950Z,99.99
2017-04-17T05:39:38.979Z,99.99
2017-04-17T05:40:39.006Z,99.99
2017-04-17T05:41:39.032Z,99.99
2017-04-17T05:42:39.073Z,99.99
2017-04-17T05:43:39.078Z,99.99
2017-04-17T05:44:39.117Z,99.99
2017-04-17T05:45:39.131Z,99.99
2017-04-17T05:46:39.180Z,99.99
2017-04-17T05:47:39.205Z,99.99
2017-04-17T05:48:39.241Z,99.99
2017-04-17T05:49:39.263Z,99.99
2017-04-17T05:50:39.287Z,99.99
2017-04-17T05:51:39.323Z,99.99
2017-04-17T05:52:39.349Z,99.99
2017-04-17T05:53:39.381Z,99.99
2017-04-17T05:54:39.383Z,99.99
2017-04-17T05:55:39.441Z,99.78
2017-04-17T05:56:39.471Z,99.59
2017-04-17T05:57:39.480Z,98.22
2017-04-17T05:58:39.528Z,96.46
2017-04-17T05:59:39.559Z,94.93
2017-04-17T06:00:39.566Z,93.51
2017-04-17T06:01:39.615Z,92.84
2017-04-17T06:02:39.636Z,92.41
2017-04-17T06:03:39.682Z,92.7
2017-04-17T06:04:39.732Z,93.13
2017-04-17T06:05:39.732Z,93.6
2017-04-17T06:06:39.775Z,92.89
2017-04-17T06:07:39.786Z,91.17
2017-04-17T06:08:39.828Z,89.7
2017-04-17T06:09:39.858Z,87.65
2017-04-17T06:10:39.908Z,85.64
2017-04-17T06:11:39.918Z,84.59
2017-04-17T06:12:39.949Z,84.74
2017-04-17T06:13:39.983Z,85.64
2017-04-17T06:14:40.016Z,86.69
2017-04-17T06:15:40.041Z,86.79
2017-04-17T06:16:40.073Z,86.41
2017-04-17T06:17:40.103Z,86.03
2017-04-17T06:18:40.118Z,87.13
2017-04-17T06:19:40.165Z,87.13
2017-04-17T06:20:40.185Z,87.79
2017-04-17T06:21:40.227Z,88.6
2017-04-17T06:22:40.255Z,89.94
2017-04-17T06:23:40.285Z,88.08
2017-04-17T06:24:40.321Z,86.16
2017-04-17T06:25:40.549Z,83.01
2017-04-17T06:26:40.376Z,80.47
2017-04-17T06:27:40.550Z,78.41
2017-04-17T06:28:40.446Z,77.17
2017-04-17T06:29:40.481Z,76.12
2017-04-17T06:30:40.508Z,76.4
2017-04-17T06:31:40.537Z,74.73
2017-04-17T06:32:40.570Z,71.45
2017-04-17T06:33:40.624Z,69.7
2017-04-17T06:34:40.630Z,68.49
2017-04-17T06:35:40.660Z,68.3
2017-04-17T06:36:40.694Z,68.59
2017-04-17T06:37:40.738Z,68.87
2017-04-17T06:38:40.770Z,65.97
2017-04-17T06:39:40.789Z,63.25
2017-04-17T06:40:40.833Z,60.91
2017-04-17T06:41:40.872Z,58.92
2017-04-17T06:42:40.883Z,57.13
2017-04-17T06:43:40.942Z,55.13
2017-04-17T06:44:40.968Z,54.97
2017-04-17T06:45:40.982Z,54.68
2017-04-17T06:46:41.038Z,54.03
2017-04-17T06:47:41.073Z,53.55
2017-04-17T06:48:41.100Z,52.61
2017-04-17T06:49:41.122Z,50.62
2017-04-17T06:50:41.182Z,51.94
2017-04-17T06:51:41.195Z,52.78
2017-04-17T06:52:41.245Z,53.53
2017-04-17T06:53:41.275Z,54.22
2017-04-17T06:54:41.320Z,53.65
2017-04-17T06:55:41.360Z,53.23
2017-04-17T06:56:41.412Z,53.21
2017-04-17T06:57:41.430Z,53.21
2017-04-17T06:58:41.463Z,52.66
2017-04-17T06:59:41.496Z,51.34
2017-04-17T07:00:41.513Z,52.11
2017-04-17T07:01:41.574Z,52.49
2017-04-17T07:02:41.601Z,52.59
2017-04-17T07:03:41.641Z,54.08
2017-04-17T07:04:41.679Z,55.37
2017-04-17T07:05:41.698Z,56.49
2017-04-17T07:06:41.745Z,56.71
2017-04-17T07:07:41.787Z,57.55
2017-04-17T07:08:41.814Z,58.1
2017-04-17T07:09:41.859Z,55.76
2017-04-17T07:10:41.899Z,53.78
2017-04-17T07:11:41.912Z,52.42
2017-04-17T07:12:41.967Z,52.06
2017-04-17T07:13:42.003Z,51.32
2017-04-17T07:14:42.035Z,50.01
2017-04-17T07:15:42.078Z,48.81
2017-04-17T07:16:42.109Z,45.86
2017-04-17T07:17:42.155Z,44.74
2017-04-17T07:18:42.197Z,44.54
2017-04-17T07:19:42.210Z,45.28
2017-04-17T07:20:42.264Z,45.35
2017-04-17T07:21:42.300Z,47.7
2017-04-17T07:22:42.333Z,49.53
2017-04-17T07:23:42.379Z,52.06
2017-04-17T07:24:42.414Z,54.86
2017-04-17T07:25:42.446Z,57.01
2017-04-17T07:26:42.486Z,59.74
2017-04-17T07:27:42.517Z,61.79
2017-04-17T07:28:42.559Z,63
2017-04-17T07:29:42.598Z,63.76
2017-04-17T07:30:42.629Z,63.6
2017-04-17T07:31:42.668Z,62.2
2017-04-17T07:32:42.707Z,61.24
2017-04-17T07:33:42.742Z,61.05
2017-04-17T07:34:42.777Z,61.24
2017-04-17T07:35:42.792Z,62.26
2017-04-17T07:36:42.849Z,63.13
2017-04-17T07:37:42.925Z,63.19
2017-04-17T07:38:42.919Z,63.45
2017-04-17T07:39:42.951Z,64.75
2017-04-17T07:40:42.991Z,65.87
2017-04-17T07:41:43.005Z,66.06
2017-04-17T07:42:43.059Z,66.35
2017-04-17T07:43:43.093Z,64.85
2017-04-17T07:44:43.120Z,62.36
2017-04-17T07:45:43.163Z,59.77
2017-04-17T07:46:43.211Z,58.26
2017-04-17T07:47:43.221Z,57.4
2017-04-17T07:48:43.274Z,58.59
2017-04-17T07:49:43.315Z,60.57
2017-04-17T07:50:43.328Z,61.31
2017-04-17T07:51:43.377Z,60.31
2017-04-17T07:52:43.421Z,56.53
2017-04-17T07:53:43.448Z,55.01
2017-04-17T07:54:43.484Z,54.56
2017-04-17T07:55:43.522Z,53.59
2017-04-17T07:56:43.557Z,53.96
2017-04-17T07:57:43.593Z,52.83
2017-04-17T07:58:43.629Z,51.14
2017-04-17T07:59:43.664Z,50.52
2017-04-17T08:00:43.707Z,49.73
2017-04-17T08:01:43.737Z,51.41
2017-04-17T08:02:43.778Z,53.16
2017-04-17T08:03:43.826Z,55.47
2017-04-17T08:04:43.859Z,57.24
2017-04-17T08:05:43.889Z,59.39
2017-04-17T08:06:43.904Z,58.81
2017-04-17T08:07:43.957Z,56.89
2017-04-17T08:08:43.994Z,53.64
2017-04-17T08:09:44.018Z,50.98
2017-04-17T08:10:44.065Z,48.28
2017-04-17T08:11:44.113Z,45.11
2017-04-17T08:12:44.195Z,43.99
2017-04-17T08:13:44.178Z,43.5
2017-04-17T08:14:44.217Z,40.83
2017-04-17T08:15:44.258Z,40.91
2017-04-17T08:16:44.315Z,43.05
2017-04-17T08:17:44.322Z,45
2017-04-17T08:18:44.373Z,46.33
2017-04-17T08:19:44.417Z,48.76
2017-04-17T08:20:44.446Z,51.06
2017-04-17T08:21:44.517Z,53.5
2017-04-17T08:22:44.517Z,55.49
2017-04-17T08:23:44.575Z,55.23
2017-04-17T08:24:44.604Z,53.46
2017-04-17T08:25:44.620Z,51.98
2017-04-17T08:26:44.656Z,50.2
2017-04-17T08:27:44.714Z,46.83
2017-04-17T08:28:44.749Z,43.85
2017-04-17T08:29:44.786Z,40.56
2017-04-17T08:30:44.822Z,39.16
2017-04-17T08:31:44.864Z,37.74
2017-04-17T08:32:44.913Z,36.97
2017-04-17T08:33:44.944Z,38.13
2017-04-17T08:34:44.988Z,37.07
2017-04-17T08:35:45.002Z,38.09
2017-04-17T08:36:45.030Z,38.7
2017-04-17T08:37:45.114Z,41.05
2017-04-17T08:38:45.142Z,43.98
2017-04-17T08:39:45.187Z,45.77
2017-04-17T08:40:45.246Z,46.78
2017-04-17T08:41:45.256Z,48.54
2017-04-17T08:42:45.309Z,50.9
2017-04-17T08:43:45.340Z,53.03
2017-04-17T08:44:45.383Z,55.46
2017-04-17T08:45:45.416Z,56.68
2017-04-17T08:46:45.457Z,57.8
2017-04-17T08:47:45.497Z,59.11
2017-04-17T08:48:45.508Z,59.75
2017-04-17T08:49:45.569Z,59.75
2017-04-17T08:50:45.606Z,60.42
2017-04-17T08:51:45.638Z,61.06
2017-04-17T08:52:45.687Z,59.3
2017-04-17T08:53:45.714Z,55.49
2017-04-17T08:54:45.751Z,50.56
2017-04-17T08:55:45.889Z,46.76
2017-04-17T08:56:45.808Z,43.32
2017-04-17T08:57:45.871Z,39.76
2017-04-17T08:58:45.909Z,37.24
2017-04-17T08:59:45.947Z,34.56
2017-04-17T09:00:46.004Z,34.11
2017-04-17T09:01:46.026Z,33.51
2017-04-17T09:02:46.060Z,34.43
2017-04-17T09:03:46.102Z,36.27
2017-04-17T09:04:46.381Z,39.36
2017-04-17T09:05:46.184Z,42.73
2017-04-17T09:06:46.223Z,45.44
2017-04-17T09:07:46.264Z,48.54
2017-04-17T09:08:46.303Z,50.7
2017-04-17T09:09:46.340Z,52.67
2017-04-17T09:10:46.376Z,55.33
2017-04-17T09:11:46.421Z,56.81
2017-04-17T09:12:46.525Z,58.4
2017-04-17T09:13:46.501Z,60.83
2017-04-17T09:14:46.524Z,62.71
2017-04-17T09:15:46.572Z,63.99
2017-04-17T09:16:46.613Z,65.96
2017-04-17T09:17:46.647Z,67.65
2017-04-17T09:18:46.676Z,69.27
2017-04-17T09:19:46.717Z,70.09
2017-04-17T09:20:46.745Z,70.86
2017-04-17T09:21:46.781Z,70.38
2017-04-17T09:22:46.821Z,72.16
2017-04-17T09:23:46.861Z,72.25
2017-04-17T09:24:46.902Z,73.58
2017-04-17T09:25:47.226Z,73.39
2017-04-17T09:26:46.958Z,72.53
2017-04-17T09:27:46.995Z,73.21
2017-04-17T09:28:47.030Z,72.92
2017-04-17T09:29:47.059Z,71.04
2017-04-17T09:30:47.198Z,65.77
2017-04-17T09:31:47.127Z,59.9
2017-04-17T09:32:47.165Z,54.83
2017-04-17T09:33:47.199Z,52.39
2017-04-17T09:34:47.231Z,50.78
2017-04-17T09:35:47.258Z,50.87
2017-04-17T09:36:47.286Z,50.66
2017-04-17T09:37:47.548Z,50.56
2017-04-17T09:38:47.368Z,49.27
2017-04-17T09:39:47.420Z,46.06
2017-04-17T09:40:47.449Z,44.43
2017-04-17T09:41:47.477Z,42.47
2017-04-17T09:42:47.528Z,40.13
2017-04-17T09:43:47.574Z,37.88
2017-04-17T09:44:47.575Z,35.6
2017-04-17T09:45:47.660Z,35.71
2017-04-17T09:46:47.684Z,33.96
2017-04-17T09:47:47.714Z,34.08
2017-04-17T09:48:47.774Z,34.09
2017-04-17T09:49:47.793Z,33.62
2017-04-17T09:50:48.016Z,32.47
2017-04-17T09:51:47.892Z,32.09
2017-04-17T09:52:47.918Z,31.9
2017-04-17T09:53:47.973Z,33.85
2017-04-17T09:54:48.024Z,33.92
2017-04-17T09:55:48.069Z,34.29
2017-04-17T09:56:48.082Z,35.1
2017-04-17T09:57:48.135Z,37.23
2017-04-17T09:58:48.192Z,37.82
2017-04-17T09:59:48.436Z,37.05
2017-04-17T10:00:49.290Z,36.49
2017-04-17T10:01:48.312Z,35.93
2017-04-17T10:02:48.341Z,35.86
2017-04-17T10:03:48.399Z,35.4
2017-04-17T10:04:48.437Z,34.19
2017-04-17T10:05:48.461Z,34.03
2017-04-17T10:06:48.500Z,32.99
2017-04-17T10:07:48.551Z,31.56
2017-04-17T10:08:48.587Z,31.19
2017-04-17T10:09:48.642Z,31.56
2017-04-17T10:10:48.686Z,33.62
2017-04-17T10:11:48.724Z,34.25
2017-04-17T10:12:48.738Z,34.81
2017-04-17T10:13:48.813Z,37.09
2017-04-17T10:14:48.852Z,38.58
2017-04-17T10:15:49.192Z,40.63
2017-04-17T10:16:48.939Z,43.07
2017-04-17T10:17:48.973Z,45.29
2017-04-17T10:18:49.008Z,47.63
2017-04-17T10:19:49.040Z,49.38
2017-04-17T10:20:49.244Z,51.65
2017-04-17T10:21:49.146Z,53.62
2017-04-17T10:22:49.172Z,55.31
2017-04-17T10:23:49.204Z,55.19
2017-04-17T10:24:49.244Z,56.31
2017-04-17T10:25:49.282Z,56.47
2017-04-17T10:26:49.319Z,56.16
2017-04-17T10:27:49.335Z,56.6
2017-04-17T10:28:49.377Z,57.37
2017-04-17T10:29:49.433Z,58.2
2017-04-17T10:30:49.440Z,59.63
2017-04-17T10:31:49.496Z,59.31
2017-04-17T10:32:49.499Z,60.08
2017-04-17T10:33:49.560Z,59.73
2017-04-17T10:34:49.607Z,59.44
2017-04-17T10:35:49.801Z,59.47
2017-04-17T10:36:49.685Z,58.26
2017-04-17T10:37:50.006Z,57.04
2017-04-17T10:38:49.754Z,54.88
2017-04-17T10:39:49.780Z,52.28
2017-04-17T10:40:49.822Z,48.78
2017-04-17T10:41:49.862Z,47.58
2017-04-17T10:42:49.873Z,45.68
2017-04-17T10:43:49.923Z,44.29
2017-04-17T10:44:49.955Z,43.64
2017-04-17T10:45:49.979Z,42.43
2017-04-17T10:46:53.742Z,41.24
2017-04-17T10:47:50.068Z,39.69
2017-04-17T10:48:50.092Z,37.71
2017-04-17T10:49:50.129Z,35.66
2017-04-17T10:50:50.161Z,34.04
2017-04-17T10:51:50.194Z,33.47
2017-04-17T10:52:50.226Z,33.36
2017-04-17T10:53:50.265Z,33.56
2017-04-17T10:54:50.295Z,33.26
2017-04-17T10:55:50.331Z,32.97
2017-04-17T10:56:50.365Z,32.6
2017-04-17T10:57:50.405Z,32.32
2017-04-17T10:58:50.424Z,32.54
2017-04-17T10:59:50.469Z,31.66
2017-04-17T11:00:50.518Z,31.19
2017-04-17T11:01:50.537Z,31
2017-04-17T11:02:50.570Z,30.32
2017-04-17T11:03:50.604Z,31
2017-04-17T11:04:50.636Z,30.61
2017-04-17T11:05:50.669Z,30.91
2017-04-17T11:06:50.707Z,31.1
2017-04-17T11:07:50.723Z,31.65
2017-04-17T11:08:50.763Z,32.02
2017-04-17T11:09:50.810Z,32.41
2017-04-17T11:10:50.885Z,32.97
2017-04-17T11:11:50.853Z,32.96
2017-04-17T11:12:50.912Z,33.62
2017-04-17T11:13:50.950Z,34.28
2017-04-17T11:14:50.964Z,34.65
2017-04-17T11:15:51.013Z,34.63
2017-04-17T11:16:51.056Z,34.52
2017-04-17T11:17:51.066Z,36.3
2017-04-17T11:18:51.121Z,38.08
2017-04-17T11:19:51.384Z,40.26
2017-04-17T11:20:51.168Z,42.22
2017-04-17T11:21:51.218Z,44.27
2017-04-17T11:22:51.252Z,45.57
2017-04-17T11:23:51.265Z,46.19
2017-04-17T11:24:51.315Z,47.49
2017-04-17T11:25:51.351Z,50.15
2017-04-17T11:26:51.384Z,54.39
2017-04-17T11:27:51.424Z,57.04
2017-04-17T11:28:51.452Z,60.36
2017-04-17T11:29:51.467Z,62.43
2017-04-17T11:30:51.491Z,64.88
2017-04-17T11:31:51.552Z,66.28
2017-04-17T11:32:51.567Z,67.48
2017-04-17T11:33:51.618Z,68.44
2017-04-17T11:34:51.653Z,68.44
2017-04-17T11:35:51.663Z,69.26
2017-04-17T11:36:51.880Z,70.02
2017-04-17T11:37:51.749Z,70.69
2017-04-17T11:38:51.783Z,70.56
2017-04-17T11:39:51.815Z,71.42
2017-04-17T11:40:51.842Z,71.98
2017-04-17T11:41:51.850Z,72.65
2017-04-17T11:42:51.906Z,73.03
2017-04-17T11:43:51.942Z,73.13
2017-04-17T11:44:51.969Z,73.41
2017-04-17T11:45:52.005Z,73.61
2017-04-17T11:46:52.035Z,73.32
2017-04-17T11:47:52.069Z,73.57
2017-04-17T11:48:52.093Z,73.57
2017-04-17T11:49:52.132Z,73.95
2017-04-17T11:50:52.147Z,73.95
2017-04-17T11:51:52.199Z,73.99
2017-04-17T11:52:52.225Z,74.08
2017-04-17T11:53:52.256Z,73.89
2017-04-17T11:54:52.282Z,73.36
2017-04-17T11:55:52.346Z,72.97
2017-04-17T11:56:52.330Z,72.16
2017-04-17T11:57:52.366Z,70.67
2017-04-17T11:58:52.417Z,69.52
2017-04-17T11:59:52.447Z,68.32
2017-04-17T12:00:52.480Z,67.65
2017-04-17T12:01:52.507Z,67.77
2017-04-17T12:02:52.542Z,67.97
2017-04-17T12:03:52.576Z,67.4
2017-04-17T12:04:52.597Z,67.3
2017-04-17T12:05:52.624Z,66.44
2017-04-17T12:06:52.679Z,64.09
2017-04-17T12:07:52.704Z,63.29
2017-04-17T12:08:52.738Z,63.39
2017-04-17T12:09:52.761Z,62.91
2017-04-17T12:10:52.794Z,62.78
2017-04-17T12:11:52.827Z,62.78
2017-04-17T12:12:52.860Z,62.84
2017-04-17T12:13:52.875Z,63.32
2017-04-17T12:14:52.922Z,63.32
2017-04-17T12:15:52.951Z,63.89
2017-04-17T12:16:52.986Z,64.65
2017-04-17T12:17:53.016Z,65.33
2017-04-17T12:18:53.046Z,64.85
2017-04-17T12:19:53.087Z,64.78
2017-04-17T12:20:53.114Z,64.12
2017-04-17T12:21:53.128Z,64.78
2017-04-17T12:22:53.189Z,64.69
2017-04-17T12:23:53.175Z,64.78
2017-04-17T12:24:53.244Z,64.59
2017-04-17T12:25:53.268Z,64.21
2017-04-17T12:26:53.290Z,63.45
2017-04-17T12:27:53.339Z,62.78
2017-04-17T12:28:53.369Z,62.68
2017-04-17T12:29:53.394Z,62.78
2017-04-17T12:30:53.436Z,62.49
2017-04-17T12:31:53.461Z,61.92
2017-04-17T12:32:53.488Z,59.82
2017-04-17T12:33:53.530Z,60.97
2017-04-17T12:34:53.563Z,61.22
2017-04-17T12:35:53.576Z,62.75
2017-04-17T12:36:53.631Z,64.15
2017-04-17T12:37:53.659Z,66.31
2017-04-17T12:38:53.690Z,67.35
2017-04-17T12:39:53.718Z,68.27
2017-04-17T12:40:53.754Z,69.7
2017-04-17T12:41:53.784Z,69.7
2017-04-17T12:42:53.818Z,70.52
2017-04-17T12:43:53.856Z,72.14
2017-04-17T12:44:53.887Z,72.42
2017-04-17T12:45:53.912Z,72.05
2017-04-17T12:46:53.944Z,72.52
2017-04-17T12:47:53.971Z,72.81
2017-04-17T12:48:53.989Z,73.57
2017-04-17T12:49:54.035Z,73.95
2017-04-17T12:50:54.063Z,74.62
2017-04-17T12:51:54.249Z,74.14
2017-04-17T12:52:54.129Z,74.33
2017-04-17T12:53:54.156Z,74.14
2017-04-17T12:54:54.186Z,74.04
2017-04-17T12:55:54.220Z,73
2017-04-17T12:56:54.257Z,73.1